»·PEaware :: FFT821 KSAN-KDEN

FFT821 :: KSAN-KDEN

FLIGHT INFORMATION

Flight Status: Arrived
Operator:
Frontier Airlines
More flights by this operator :: More flights under this callsign
Pilot: Chandler S. (807)
Aircraft: AIRBUS A321
(A321)
More flights by this aircraft type
Origin: KSAN San Diego Intl-Lindbergh
United States
Destination: KDEN Denver Intl
United States
More flights between these airports :: More routes between these airports
Route: ZZOOO2 MTBAL EED J236 TBC SHNPS TBARR1
File this flight plan on PilotEdge
Remarks:
Altitude:
(Current/Filed)
35,000ft
Speed:
(Current/Filed)
400kts
Departed: 07-Jul-20 02:59 PM
Arrived: 07-Jul-20 04:49 PM
Distance/Time
Traveled:
739nm/1:50
Distance/Time
To Go:
Arrived

Flight Plot

Page will automatically refresh every two minutes.

Flight plan parsing failed; only flown route is shown


Map Options




Map Legend


Flown Route
Filed Route
Departure Airport
Arrival Airport
Navaid (VOR, NDB)
Fix

Horizontal Profiles

Position Reports

Time Latitude Longitude Heading Altitude Ground
Speed
07-Jul-20 14:28 32.732532 -117.205887 191 26ft 0kts
07-Jul-20 14:29 32.732532 -117.205887 191 26ft 0kts
07-Jul-20 14:30 32.732532 -117.205887 191 26ft 0kts
07-Jul-20 14:31 32.732532 -117.205887 191 26ft 0kts
07-Jul-20 14:32 32.732532 -117.205887 191 26ft 0kts
07-Jul-20 14:33 32.732532 -117.205887 191 26ft 0kts
07-Jul-20 14:34 32.732532 -117.205887 191 26ft 0kts
07-Jul-20 14:35 32.732532 -117.205887 191 26ft 0kts
07-Jul-20 14:35 32.732532 -117.205887 191 26ft 0kts
07-Jul-20 14:37 32.732532 -117.205887 191 26ft 0kts
07-Jul-20 14:38 32.732532 -117.205887 191 26ft 0kts
07-Jul-20 14:38 32.732825 -117.205901 162 26ft 2kts
07-Jul-20 14:40 32.733248 -117.206507 95 26ft 2kts
07-Jul-20 14:40 32.733248 -117.206662 84 26ft 0kts
07-Jul-20 14:41 32.733248 -117.206662 84 26ft 0kts
07-Jul-20 14:43 32.733248 -117.206662 84 26ft 0kts
07-Jul-20 14:43 32.733631 -117.205579 18 26ft 10kts
07-Jul-20 14:44 32.735154 -117.204996 50 26ft 0kts
07-Jul-20 14:45 32.735154 -117.204996 50 26ft 0kts
07-Jul-20 14:46 32.735154 -117.204996 50 26ft 0kts
07-Jul-20 14:47 32.735273 -117.204821 53 26ft 7kts
07-Jul-20 14:48 32.734738 -117.198788 106 26ft 24kts
07-Jul-20 14:49 32.732842 -117.190969 106 26ft 25kts
07-Jul-20 14:50 32.731106 -117.183778 105 26ft 18kts
07-Jul-20 14:51 32.729725 -117.178174 106 26ft 5kts
07-Jul-20 14:52 32.729721 -117.178157 106 26ft 0kts
07-Jul-20 14:53 32.729717 -117.178141 106 26ft 1kts
07-Jul-20 14:54 32.729491 -117.176848 75 26ft 0kts
07-Jul-20 14:55 32.729497 -117.176822 75 26ft 2kts
07-Jul-20 14:56 32.730297 -117.176222 286 26ft 0kts
07-Jul-20 14:57 32.730363 -117.176491 286 26ft 25kts
07-Jul-20 14:58 32.742493 -117.225806 282 1821ft 218kts
07-Jul-20 14:59 32.752682 -117.299561 238 4801ft 238kts
07-Jul-20 15:00 32.695140 -117.291723 148 7854ft 260kts
07-Jul-20 15:01 32.633020 -117.243834 130 10854ft 280kts
07-Jul-20 15:02 32.621806 -117.148676 97 13572ft 305kts
07-Jul-20 15:03 32.613594 -117.047135 99 16190ft 312kts
07-Jul-20 15:04 32.604331 -116.944646 99 18564ft 316kts
07-Jul-20 15:05 32.616614 -116.840049 77 20537ft 328kts
07-Jul-20 15:06 32.661108 -116.752933 17 22433ft 325kts
07-Jul-20 15:07 32.746945 -116.715831 19 24139ft 333kts
07-Jul-20 15:08 32.822385 -116.650315 42 25539ft 348kts
07-Jul-20 15:09 32.894054 -116.570395 40 26906ft 357kts
07-Jul-20 15:10 32.967990 -116.489767 40 28240ft 363kts
07-Jul-20 15:11 33.043876 -116.407028 39 29354ft 377kts
07-Jul-20 15:12 33.114514 -116.329865 38 30332ft 387kts
07-Jul-20 15:13 33.194732 -116.242158 38 31161ft 401kts
07-Jul-20 15:14 33.278259 -116.150532 38 31972ft 414kts
07-Jul-20 15:15 33.363144 -116.057110 38 33068ft 416kts
07-Jul-20 15:16 33.449057 -115.962357 38 33801ft 426kts
07-Jul-20 15:17 33.536953 -115.865117 38 34599ft 434kts
07-Jul-20 15:18 33.627646 -115.764517 38 34780ft 457kts
07-Jul-20 15:19 33.723372 -115.657992 38 34778ft 481kts
07-Jul-20 15:20 33.822862 -115.546887 39 34778ft 492kts
07-Jul-20 15:21 33.922699 -115.435000 39 34777ft 492kts
07-Jul-20 15:22 34.021049 -115.324332 39 34812ft 492kts
07-Jul-20 15:23 34.120624 -115.211590 39 34842ft 492kts
07-Jul-20 15:24 34.220798 -115.098613 39 34823ft 490kts
07-Jul-20 15:25 34.320025 -114.985948 39 34824ft 487kts
07-Jul-20 15:26 34.418330 -114.873896 39 34824ft 486kts
07-Jul-20 15:27 34.498927 -114.741358 56 34824ft 493kts
07-Jul-20 15:28 34.568237 -114.597830 56 34823ft 493kts
07-Jul-20 15:29 34.638081 -114.454602 56 34820ft 493kts
07-Jul-20 15:30 34.700770 -114.325738 56 34817ft 493kts
07-Jul-20 15:31 34.762691 -114.197542 56 34817ft 493kts
07-Jul-20 15:32 34.832031 -114.053934 56 34860ft 493kts
07-Jul-20 15:33 34.901382 -113.909755 56 34987ft 494kts
07-Jul-20 15:34 34.971421 -113.763490 56 35034ft 506kts
07-Jul-20 15:35 35.043138 -113.613182 55 35042ft 519kts
07-Jul-20 15:36 35.115897 -113.460110 55 35044ft 516kts
07-Jul-20 15:37 35.185114 -113.314663 56 35043ft 516kts
07-Jul-20 15:38 35.255343 -113.165058 56 35065ft 517kts
07-Jul-20 15:39 35.326811 -113.012505 56 35166ft 516kts
07-Jul-20 15:40 35.397606 -112.860691 55 35252ft 510kts
07-Jul-20 15:41 35.467442 -112.710443 55 35273ft 508kts
07-Jul-20 15:42 35.537798 -112.558465 55 35275ft 511kts
07-Jul-20 15:43 35.607605 -112.406868 55 35274ft 511kts
07-Jul-20 15:44 35.677381 -112.254274 56 35270ft 511kts
07-Jul-20 15:45 35.747043 -112.101382 56 35268ft 511kts
07-Jul-20 15:46 35.816288 -111.948973 56 35268ft 511kts
07-Jul-20 15:47 35.885604 -111.795717 56 35268ft 511kts
07-Jul-20 15:48 35.954780 -111.642057 56 35268ft 511kts
07-Jul-20 15:49 36.023530 -111.488641 56 35267ft 511kts
07-Jul-20 15:50 36.092256 -111.334545 57 35209ft 512kts
07-Jul-20 15:51 36.164985 -111.182560 53 35089ft 510kts
07-Jul-20 15:52 36.240530 -111.033439 53 35031ft 509kts
07-Jul-20 15:53 36.314899 -110.885377 53 35021ft 506kts
07-Jul-20 15:54 36.388871 -110.737355 53 35020ft 505kts
07-Jul-20 15:55 36.462735 -110.588925 53 35020ft 505kts
07-Jul-20 15:56 36.536506 -110.440024 53 35020ft 505kts
07-Jul-20 15:57 36.610346 -110.290094 54 35040ft 506kts
07-Jul-20 15:58 36.683482 -110.140738 54 35137ft 505kts
07-Jul-20 15:59 36.756674 -109.990953 54 35193ft 504kts
07-Jul-20 16:00 36.829603 -109.841136 54 35202ft 505kts
07-Jul-20 16:01 36.902186 -109.691296 54 35203ft 505kts
07-Jul-20 16:02 36.974622 -109.541084 54 35202ft 505kts
07-Jul-20 16:03 37.047461 -109.389468 54 35202ft 511kts
07-Jul-20 16:04 37.120531 -109.236397 55 35200ft 517kts
07-Jul-20 16:05 37.194726 -109.081009 56 35200ft 511kts
07-Jul-20 16:06 37.266624 -108.929229 56 35186ft 503kts
07-Jul-20 16:07 37.338006 -108.777759 56 35177ft 502kts
07-Jul-20 16:08 37.409232 -108.625938 56 35177ft 503kts
07-Jul-20 16:09 37.480050 -108.474297 56 35176ft 503kts
07-Jul-20 16:10 37.549317 -108.325223 57 35200ft 503kts
07-Jul-20 16:11 37.619830 -108.172228 56 35314ft 509kts
07-Jul-20 16:12 37.691403 -108.016815 56 35383ft 509kts
07-Jul-20 16:13 37.762462 -107.861783 56 35394ft 509kts
07-Jul-20 16:14 37.833254 -107.706599 56 35396ft 509kts
07-Jul-20 16:15 37.903800 -107.551161 56 35395ft 509kts
07-Jul-20 16:16 37.973916 -107.395979 56 35391ft 509kts
07-Jul-20 16:17 38.044216 -107.239235 57 35338ft 510kts
07-Jul-20 16:18 38.114451 -107.082355 57 35265ft 510kts
07-Jul-20 16:19 38.183075 -106.954668 46 35247ft 501kts
07-Jul-20 16:21 38.271869 -106.820553 46 35243ft 492kts
07-Jul-20 16:22 38.359722 -106.686750 46 35241ft 491kts
07-Jul-20 16:23 38.446887 -106.553247 46 35241ft 491kts
07-Jul-20 16:24 38.534103 -106.419042 46 35250ft 491kts
07-Jul-20 16:25 38.620886 -106.284686 47 33726ft 481kts
07-Jul-20 16:26 38.705485 -106.154551 47 31513ft 471kts
07-Jul-20 16:27 38.789236 -106.026467 47 28991ft 468kts
07-Jul-20 16:28 38.873338 -105.897076 48 26742ft 468kts
07-Jul-20 16:29 38.957236 -105.767040 48 24727ft 470kts
07-Jul-20 16:30 39.041306 -105.636128 48 23536ft 482kts
07-Jul-20 16:31 39.126805 -105.502671 47 22551ft 476kts
07-Jul-20 16:32 39.209470 -105.372865 52 21213ft 447kts
07-Jul-20 16:33 39.283645 -105.255991 41 19768ft 395kts
07-Jul-20 16:34 39.368017 -105.174238 31 17973ft 370kts
07-Jul-20 16:35 39.451793 -105.096643 32 15866ft 371kts
07-Jul-20 16:36 39.532665 -105.022193 32 15075ft 341kts
07-Jul-20 16:36 39.596918 -104.963180 33 14037ft 334kts
07-Jul-20 16:38 39.683339 -104.883480 34 13072ft 312kts
07-Jul-20 16:39 39.760477 -104.839466 357 13075ft 307kts
07-Jul-20 16:39 39.831829 -104.839734 358 13059ft 307kts
07-Jul-20 16:40 39.917580 -104.838846 358 11161ft 304kts
07-Jul-20 16:41 39.995234 -104.836393 359 11033ft 263kts
07-Jul-20 16:42 40.069180 -104.833319 9 9838ft 269kts
07-Jul-20 16:43 40.103164 -104.758917 86 8459ft 261kts
07-Jul-20 16:44 40.065189 -104.691169 158 7988ft 243kts
07-Jul-20 16:45 40.007601 -104.684785 184 7393ft 192kts
07-Jul-20 16:46 39.957566 -104.685685 181 6597ft 170kts
07-Jul-20 16:47 39.911037 -104.686577 179 5786ft 167kts
07-Jul-20 16:48 39.877636 -104.686371 159 5440ft 31kts
07-Jul-20 16:49 39.875931 -104.685371 150 5440ft 10kts
07-Jul-20 16:50 39.868853 -104.683768 180 5440ft 30kts
07-Jul-20 16:51 39.860734 -104.683900 179 5440ft 28kts
07-Jul-20 16:52 39.853886 -104.683964 178 5440ft 22kts
07-Jul-20 16:53 39.853275 -104.678182 59 5440ft 4kts
07-Jul-20 16:54 39.853328 -104.678061 60 5440ft 0kts

Navigation Log

Ident Type
Flight plan parsing failed, navigation log unavailable